Aeroporto :
LOGIN :

Iscrizione | Disclaimer

   EN    FR    IT 

 










Sommario :    VFR   VFR Marginale   IFR   IFR Intensivo   IFR Molto Intensivo
Visibilità : 
Base nubi : 
>= 8 km
>= 3000ft
5 / 8 km
1000 / 3000 ft
1500m / 5 km
500 / 1000 ft
800 / 1500m
200 / 500 ft
< 800m
< 200 ft
Simboli :   Temporali  Nebbia  Neve Forte  Precipitazioni Forti  Vento > 20 kt
SIGMETs :   Varie  Temporali  Ghiacco  Turbolenza  Onda orograficha  Ceneri Vulcaniche






- Altitudine del aeroporto : 465 ft
- Codice IATA : LEJ


EDDP - Leipzig Halle

ULTIMO METAR :
  • 240350Z 19008KT 8000 NSC M02/M04 Q1023 NOSIG

METARs OBSOLETI :
  • 240320Z 20008KT 8000 NSC M03/M04 Q1024 NOSIG
  • 240250Z 22005KT 8000 NSC M03/M04 Q1024 NOSIG
  • 240220Z 17007KT 8000 NSC M03/M04 Q1024 NOSIG
  • 240150Z 17007KT CAVOK M03/M04 Q1025 NOSIG
  • 240120Z 17007KT CAVOK M03/M04 Q1025 NOSIG

TAF TAF EDDP
Valido dal 24 a 00 ore il 25 a 00 ore UTC


232300Z 2400/2424 20004KT 6000 NSC
PROB30
TEMPO 2400/2409 0100 FZFG BKN001



MetMap, La meteo Aeronautica in un colpo d'occhio ! - Copyright ORBIFLY Dicembre 2007 - Disclaimer

ORBIFLY MET'MAP TEAM :

Programmazione e sviluppo : Alexandra Zaïnal
Concezione : Baudouin d'Aumeries
Aiuto per la programmazione : Marc-Olivier Méhu
Supporto tecnico e logistico : Manuel Goepfert
Aiuto per la traduzione : Arnaldo La Scala

Contatto : metmap@orbifly.com




FONTI E CREDITI :

   NOAA